createdAt,value
2022-07-30T00:02:27.062Z,1.80
2022-07-30T00:05:14.255Z,1.95
2022-07-30T00:08:01.087Z,1.98
2022-07-30T00:10:48.107Z,1.85
2022-07-30T00:13:37.032Z,1.80
2022-07-30T00:16:24.169Z,2.00
2022-07-30T00:19:11.270Z,2.03
2022-07-30T00:21:58.228Z,2.00
2022-07-30T00:24:45.055Z,2.10
2022-07-30T00:27:34.863Z,1.70
2022-07-30T00:30:21.851Z,1.77
2022-07-30T00:33:08.665Z,1.80
2022-07-30T00:35:55.447Z,1.73
2022-07-30T00:38:42.256Z,2.05
2022-07-30T00:41:29.181Z,2.05
2022-07-30T00:44:15.994Z,2.40
2022-07-30T00:47:03.261Z,2.22
2022-07-30T00:49:50.332Z,2.10
2022-07-30T00:52:38.416Z,1.88
2022-07-30T00:55:25.304Z,1.90
2022-07-30T00:58:12.113Z,1.83
2022-07-30T01:00:59.020Z,2.00
2022-07-30T01:04:08.726Z,2.03
2022-07-30T01:07:02.354Z,1.98
2022-07-30T01:09:50.572Z,1.85
2022-07-30T01:12:37.702Z,2.15
2022-07-30T01:15:25.643Z,1.95
2022-07-30T01:18:16.144Z,1.90
2022-07-30T01:21:09.608Z,2.10
2022-07-30T01:24:11.360Z,2.00
2022-07-30T01:27:03.478Z,2.20
2022-07-30T01:29:54.277Z,2.17
2022-07-30T01:32:44.072Z,2.47
2022-07-30T01:35:33.590Z,2.10
2022-07-30T01:38:23.744Z,2.30
2022-07-30T01:41:12.335Z,2.30
2022-07-30T01:44:03.025Z,2.47
2022-07-30T01:46:50.568Z,2.30
2022-07-30T01:49:38.966Z,2.40
2022-07-30T01:52:31.599Z,2.30
2022-07-30T01:55:47.120Z,2.47
2022-07-30T01:58:42.354Z,2.42
2022-07-30T02:01:29.262Z,2.60
2022-07-30T02:04:16.367Z,2.20
2022-07-30T02:07:10.487Z,2.42
2022-07-30T02:10:07.231Z,2.38
2022-07-30T02:12:56.524Z,2.38
2022-07-30T02:16:19.675Z,1.98
2022-07-30T02:23:07.619Z,2.40
2022-07-30T02:25:57.059Z,2.20
2022-07-30T02:28:47.229Z,2.17
2022-07-30T02:31:37.268Z,2.33
2022-07-30T02:34:25.238Z,2.20
2022-07-30T02:37:14.477Z,2.60
2022-07-30T02:40:01.646Z,2.20
2022-07-30T02:42:52.410Z,2.45
2022-07-30T02:45:39.604Z,2.85
2022-07-30T02:48:34.545Z,2.60
2022-07-30T02:51:23.526Z,2.80
2022-07-30T02:54:12.621Z,2.60
2022-07-30T02:57:00.880Z,2.60
2022-07-30T02:59:48.751Z,2.42
2022-07-30T03:02:36.723Z,2.50
2022-07-30T03:05:27.878Z,2.72
2022-07-30T03:08:19.844Z,2.65
2022-07-30T03:11:07.112Z,3.05
2022-07-30T03:13:54.099Z,3.15
2022-07-30T03:16:47.196Z,3.10
2022-07-30T03:19:39.031Z,3.08
2022-07-30T03:22:31.318Z,3.40
2022-07-30T03:25:40.076Z,3.55
2022-07-30T03:28:29.413Z,3.45
2022-07-30T03:31:16.972Z,3.70
2022-07-30T03:34:06.830Z,3.40
2022-07-30T03:36:55.645Z,3.55
2022-07-30T03:42:29.967Z,3.50
2022-07-30T03:45:18.724Z,3.80
2022-07-30T03:48:08.211Z,3.50
2022-07-30T03:50:55.725Z,3.60
2022-07-30T03:53:43.759Z,3.33
2022-07-30T03:56:31.389Z,3.10
2022-07-30T03:59:23.080Z,3.40
2022-07-30T04:02:12.634Z,3.30
2022-07-30T04:05:04.255Z,3.58
2022-07-30T04:07:51.069Z,3.45
2022-07-30T04:10:37.909Z,3.42
2022-07-30T04:13:24.854Z,3.80
2022-07-30T04:16:39.475Z,3.67
2022-07-30T04:20:00.437Z,3.53
2022-07-30T04:22:48.146Z,3.45
2022-07-30T04:25:35.143Z,3.83
2022-07-30T04:28:22.504Z,3.13
2022-07-30T04:31:11.523Z,3.22
2022-07-30T04:34:02.741Z,3.33
2022-07-30T04:36:51.551Z,3.25
2022-07-30T04:39:38.412Z,3.42
2022-07-30T04:42:26.472Z,3.72
2022-07-30T04:45:13.953Z,3.70
2022-07-30T04:48:00.992Z,3.92
2022-07-30T04:50:51.484Z,3.50
2022-07-30T04:53:40.314Z,3.10
2022-07-30T04:56:30.709Z,3.20
2022-07-30T04:59:20.349Z,3.00
2022-07-30T05:02:09.393Z,2.88
2022-07-30T05:04:57.675Z,2.53
2022-07-30T05:07:46.686Z,2.50
2022-07-30T05:10:33.771Z,2.75
2022-07-30T05:13:22.429Z,3.38
2022-07-30T05:16:15.096Z,3.67
2022-07-30T05:19:01.990Z,3.45
2022-07-30T05:21:54.825Z,3.00
2022-07-30T05:24:41.733Z,3.00
2022-07-30T05:27:28.623Z,2.87
2022-07-30T05:30:15.521Z,2.53
2022-07-30T05:33:02.807Z,2.22
2022-07-30T05:35:50.985Z,2.67
2022-07-30T05:38:37.982Z,2.30
2022-07-30T05:41:32.194Z,2.30
2022-07-30T05:44:23.901Z,2.42
2022-07-30T05:47:11.053Z,2.38
2022-07-30T05:50:01.470Z,2.50
2022-07-30T05:52:51.181Z,3.42
2022-07-30T05:55:37.994Z,4.30
2022-07-30T05:58:32.195Z,4.32
2022-07-30T06:01:22.367Z,4.85
2022-07-30T06:04:12.663Z,4.53
2022-07-30T06:06:59.664Z,5.38
2022-07-30T06:09:46.788Z,5.65
2022-07-30T06:12:33.753Z,5.30
2022-07-30T06:15:26.115Z,5.03
2022-07-30T06:18:13.217Z,5.53
2022-07-30T06:21:02.419Z,5.90
2022-07-30T06:23:49.223Z,5.32
2022-07-30T06:26:36.050Z,4.40
2022-07-30T06:29:22.917Z,4.65
2022-07-30T06:32:09.718Z,4.07
2022-07-30T06:35:04.014Z,3.95
2022-07-30T06:38:00.652Z,3.58
2022-07-30T06:40:57.173Z,3.75
2022-07-30T06:43:47.521Z,3.60
2022-07-30T06:46:34.435Z,3.43
2022-07-30T06:49:21.395Z,3.77
2022-07-30T06:52:08.304Z,3.35
2022-07-30T06:54:55.281Z,3.70
2022-07-30T06:57:42.533Z,3.27
2022-07-30T07:00:29.728Z,3.28
2022-07-30T07:03:16.643Z,3.30
2022-07-30T07:06:05.425Z,3.40
2022-07-30T07:08:52.283Z,2.80
2022-07-30T07:11:39.137Z,4.00
2022-07-30T07:14:26.847Z,4.07
2022-07-30T07:17:13.913Z,4.13
2022-07-30T07:20:02.614Z,3.88
2022-07-30T07:22:50.055Z,3.50
2022-07-30T07:25:36.851Z,3.17
2022-07-30T07:28:29.997Z,3.07
2022-07-30T07:32:07.381Z,2.97
2022-07-30T07:34:27.534Z,2.53
2022-07-30T07:37:17.653Z,2.60
2022-07-30T07:40:05.092Z,2.50
2022-07-30T07:42:51.873Z,2.30
2022-07-30T07:45:39.368Z,2.30
2022-07-30T07:48:26.254Z,2.10
2022-07-30T07:51:13.085Z,2.13
2022-07-30T07:54:19.990Z,1.97
2022-07-30T07:57:10.509Z,2.10
2022-07-30T08:00:00.321Z,2.15
2022-07-30T08:02:50.768Z,2.10
2022-07-30T08:05:58.192Z,1.77
2022-07-30T08:08:44.584Z,2.10
2022-07-30T08:11:31.892Z,2.20
2022-07-30T08:14:18.707Z,2.13
2022-07-30T08:17:06.005Z,2.20
2022-07-30T08:22:40.568Z,2.15
2022-07-30T08:25:28.007Z,2.03
2022-07-30T08:28:35.188Z,1.85
2022-07-30T08:31:21.893Z,2.20
2022-07-30T08:34:08.704Z,1.90
2022-07-30T08:36:56.089Z,2.00
2022-07-30T08:39:45.374Z,1.90
2022-07-30T08:42:40.894Z,1.80
2022-07-30T08:45:39.603Z,1.60
2022-07-30T08:48:28.205Z,1.60
2022-07-30T08:51:18.082Z,1.80
2022-07-30T08:54:05.193Z,1.60
2022-07-30T08:56:53.581Z,1.67
2022-07-30T08:59:59.470Z,1.83
2022-07-30T09:02:57.313Z,1.60
2022-07-30T09:05:46.785Z,1.88
2022-07-30T09:08:39.118Z,1.58
2022-07-30T09:11:27.909Z,1.58
2022-07-30T09:14:22.994Z,1.48
2022-07-30T09:17:22.090Z,1.63
2022-07-30T09:20:09.608Z,1.35
2022-07-30T09:25:48.132Z,1.50
2022-07-30T09:28:35.227Z,1.40
2022-07-30T09:31:23.544Z,1.45
2022-07-30T09:34:43.094Z,1.23
2022-07-30T09:37:30.607Z,1.30
2022-07-30T09:40:21.944Z,1.45
2022-07-30T09:43:18.784Z,1.50
2022-07-30T09:46:07.524Z,1.40
2022-07-30T09:49:14.881Z,1.40
2022-07-30T09:52:01.854Z,1.30
2022-07-30T09:54:53.006Z,1.20
2022-07-30T09:57:58.991Z,1.20
2022-07-30T10:00:51.117Z,1.10
2022-07-30T10:03:42.603Z,1.30
2022-07-30T10:06:38.427Z,1.50
2022-07-30T10:09:38.448Z,1.13
2022-07-30T10:12:28.287Z,1.10
2022-07-30T10:15:21.830Z,1.10
2022-07-30T10:18:09.122Z,1.20
2022-07-30T10:21:00.564Z,1.10
2022-07-30T10:23:49.259Z,1.00
2022-07-30T10:26:37.984Z,1.20
2022-07-30T10:29:33.439Z,1.08
2022-07-30T10:32:30.603Z,1.35
2022-07-30T10:35:34.492Z,1.17
2022-07-30T10:38:33.080Z,1.27
2022-07-30T10:41:48.377Z,1.40
2022-07-30T10:45:03.507Z,1.23
2022-07-30T10:47:53.229Z,0.98
2022-07-30T10:50:56.293Z,1.10
2022-07-30T10:53:46.827Z,1.08
2022-07-30T10:56:35.854Z,1.00
2022-07-30T10:59:28.882Z,1.10
2022-07-30T11:02:20.215Z,1.10
2022-07-30T11:05:45.400Z,1.20
2022-07-30T11:08:36.735Z,1.30
2022-07-30T11:11:28.734Z,1.50
2022-07-30T11:14:46.303Z,1.30
2022-07-30T11:18:12.775Z,1.23
2022-07-30T11:21:22.625Z,1.23
2022-07-30T11:24:48.965Z,1.10
2022-07-30T11:27:46.592Z,1.20
2022-07-30T11:30:35.976Z,1.20
2022-07-30T11:33:32.957Z,1.10
2022-07-30T11:36:20.340Z,1.05
2022-07-30T11:39:11.170Z,0.88
2022-07-30T11:42:25.505Z,1.00
2022-07-30T11:45:18.682Z,0.88
2022-07-30T11:48:14.019Z,0.90
2022-07-30T11:51:15.968Z,0.90
2022-07-30T11:54:08.022Z,0.98
2022-07-30T11:57:04.333Z,1.02
2022-07-30T12:00:10.713Z,0.75
2022-07-30T12:03:07.101Z,0.90
2022-07-30T12:06:10.568Z,0.63
2022-07-30T12:08:58.920Z,0.70
2022-07-30T12:11:45.821Z,0.50
2022-07-30T12:14:42.563Z,0.60
2022-07-30T12:17:46.391Z,0.50
2022-07-30T12:20:35.972Z,0.50
2022-07-30T12:23:25.992Z,0.60
2022-07-30T12:26:35.565Z,0.50
2022-07-30T12:29:28.437Z,0.32
2022-07-30T12:32:20.813Z,0.43
2022-07-30T12:35:09.454Z,0.55
2022-07-30T12:38:04.550Z,0.60
2022-07-30T12:40:55.393Z,0.60
2022-07-30T12:43:52.181Z,0.50
2022-07-30T12:46:41.511Z,0.60
2022-07-30T12:49:36.762Z,0.60
2022-07-30T12:52:34.839Z,0.68
2022-07-30T12:55:40.884Z,0.60
2022-07-30T12:58:37.359Z,0.80
2022-07-30T13:01:47.293Z,0.90
2022-07-30T13:04:39.946Z,0.70
2022-07-30T13:07:57.675Z,0.80
2022-07-30T13:11:01.061Z,0.88
2022-07-30T13:13:50.821Z,1.00
2022-07-30T13:16:37.625Z,1.00
2022-07-30T13:19:25.708Z,0.90
2022-07-30T13:22:13.557Z,0.90
2022-07-30T13:25:00.393Z,1.00
2022-07-30T13:27:48.375Z,1.10
2022-07-30T13:30:38.211Z,1.02
2022-07-30T13:33:28.177Z,0.90
2022-07-30T13:36:15.002Z,0.80
2022-07-30T13:39:04.499Z,1.00
2022-07-30T13:41:51.391Z,0.77
2022-07-30T13:44:38.167Z,0.70
2022-07-30T13:47:24.983Z,0.95
2022-07-30T13:50:11.764Z,1.08
2022-07-30T13:53:02.103Z,1.00
2022-07-30T13:55:51.768Z,1.00
2022-07-30T13:58:38.682Z,1.05
2022-07-30T14:01:25.621Z,1.20
2022-07-30T14:04:12.497Z,0.90
2022-07-30T14:06:59.650Z,0.90
2022-07-30T14:09:52.678Z,0.82
2022-07-30T14:12:41.223Z,0.80
2022-07-30T14:15:32.462Z,0.73
2022-07-30T14:18:19.670Z,1.15
2022-07-30T14:21:06.709Z,1.20
2022-07-30T14:23:54.835Z,1.17
2022-07-30T14:26:42.436Z,1.05
2022-07-30T14:29:29.419Z,1.20
2022-07-30T14:32:16.307Z,1.13
2022-07-30T14:35:04.668Z,1.10
2022-07-30T14:37:51.714Z,0.90
2022-07-30T14:40:38.548Z,0.80
2022-07-30T14:43:29.989Z,0.73
2022-07-30T14:46:17.338Z,0.70
2022-07-30T14:51:54.111Z,0.60
2022-07-30T14:54:40.985Z,0.68
2022-07-30T14:57:28.005Z,0.70
2022-07-30T17:34:56.545Z,0.70
2022-07-30T17:37:43.425Z,0.90
2022-07-30T17:40:31.818Z,0.80
2022-07-30T17:43:18.893Z,0.90
2022-07-30T17:46:06.273Z,0.80
2022-07-30T17:48:53.645Z,0.90
2022-07-30T17:51:40.573Z,0.90
2022-07-30T17:54:27.356Z,0.90
2022-07-30T17:57:15.194Z,0.90
2022-07-30T18:00:02.313Z,0.85
2022-07-30T18:02:49.182Z,0.90
2022-07-30T18:05:35.977Z,0.90
2022-07-30T18:08:23.848Z,0.90
2022-07-30T18:11:13.655Z,1.00
2022-07-30T18:14:00.761Z,0.90
2022-07-30T18:16:47.624Z,0.80
2022-07-30T18:19:34.458Z,0.88
2022-07-30T18:22:22.351Z,0.90
2022-07-30T18:25:17.878Z,0.88
2022-07-30T18:28:06.075Z,0.70
2022-07-30T18:30:52.865Z,0.77
2022-07-30T18:33:39.715Z,0.70
2022-07-30T18:36:26.583Z,0.90
2022-07-30T18:39:13.335Z,0.80
2022-07-30T18:42:00.562Z,0.73
2022-07-30T18:47:34.753Z,0.95
2022-07-30T18:50:22.788Z,0.88
2022-07-30T18:53:15.331Z,0.80
2022-07-30T18:56:03.016Z,0.90
2022-07-30T18:58:49.802Z,1.17
2022-07-30T19:01:39.115Z,1.20
2022-07-30T19:04:26.501Z,1.10
2022-07-30T19:07:13.375Z,1.20
2022-07-30T19:10:00.341Z,1.45
2022-07-30T19:12:47.164Z,1.40
2022-07-30T19:15:33.962Z,1.50
2022-07-30T19:18:20.729Z,1.47
2022-07-30T19:21:14.069Z,1.30
2022-07-30T19:24:01.736Z,1.30
2022-07-30T19:26:48.677Z,1.25
2022-07-30T19:29:36.784Z,1.50
2022-07-30T19:32:23.635Z,1.50
2022-07-30T19:35:13.407Z,1.33
2022-07-30T19:38:01.802Z,1.60
2022-07-30T19:40:49.432Z,1.50
2022-07-30T19:43:36.306Z,1.70
2022-07-30T19:46:24.206Z,1.60
2022-07-30T19:49:11.411Z,1.80
2022-07-30T19:52:11.083Z,1.58
2022-07-30T19:55:17.131Z,1.50
2022-07-30T19:58:17.830Z,1.70
2022-07-30T20:01:08.600Z,1.80
2022-07-30T20:03:55.630Z,1.70
2022-07-30T20:06:49.066Z,1.80
2022-07-30T20:09:37.150Z,1.58
2022-07-30T20:12:24.511Z,1.50
2022-07-30T20:15:14.646Z,1.80
2022-07-30T20:18:01.985Z,1.63
2022-07-30T20:21:00.753Z,1.80
2022-07-30T20:24:04.836Z,1.80
2022-07-30T20:26:52.459Z,1.80
2022-07-30T20:29:39.320Z,1.60
2022-07-30T20:32:29.228Z,1.80
2022-07-30T20:35:20.121Z,1.80
2022-07-30T20:38:10.312Z,1.85
2022-07-30T20:40:57.411Z,1.63
2022-07-30T20:43:52.543Z,1.90
2022-07-30T20:46:41.692Z,1.80
2022-07-30T20:49:35.197Z,1.70
2022-07-30T20:52:25.378Z,1.60
2022-07-30T20:55:12.947Z,1.65
2022-07-30T20:58:17.417Z,1.73
2022-07-30T21:01:04.882Z,1.70
2022-07-30T21:03:51.788Z,1.50
2022-07-30T21:06:44.260Z,1.58
2022-07-30T21:09:52.115Z,1.75
2022-07-30T21:12:40.343Z,1.70
2022-07-30T21:15:34.624Z,1.80
2022-07-30T21:18:25.218Z,1.80
2022-07-30T21:24:31.383Z,1.80
2022-07-30T21:27:19.117Z,1.65
2022-07-30T21:30:06.572Z,1.70
2022-07-30T21:32:55.885Z,1.90
2022-07-30T21:35:45.049Z,1.70
2022-07-30T21:38:35.313Z,1.60
2022-07-30T21:44:37.851Z,2.10
2022-07-30T21:47:24.702Z,1.90
2022-07-30T21:50:13.429Z,1.75
2022-07-30T21:53:02.887Z,2.10
2022-07-30T21:55:53.141Z,1.60
2022-07-30T21:58:40.226Z,1.90
2022-07-30T22:01:27.009Z,1.70
2022-07-30T22:04:18.375Z,2.03
2022-07-30T22:07:05.320Z,1.92
2022-07-30T22:09:55.453Z,1.85
2022-07-30T22:12:44.064Z,1.60
2022-07-30T22:15:31.872Z,1.90
2022-07-30T22:21:14.530Z,1.95
2022-07-30T22:24:04.440Z,1.90
2022-07-30T22:26:51.893Z,1.70
2022-07-30T22:29:42.517Z,1.90
2022-07-30T22:32:41.965Z,1.63
2022-07-30T22:35:32.217Z,1.77
2022-07-30T22:38:27.061Z,1.95
2022-07-30T22:41:14.154Z,1.80
2022-07-30T22:44:12.937Z,2.00
2022-07-30T22:46:59.945Z,1.80
2022-07-30T22:49:55.300Z,1.92
2022-07-30T22:52:53.218Z,1.80
2022-07-30T22:55:45.255Z,1.80
2022-07-30T22:58:32.152Z,1.60
2022-07-30T23:01:21.634Z,1.83
2022-07-30T23:04:15.306Z,1.83
2022-07-30T23:07:07.868Z,1.80
2022-07-30T23:09:54.731Z,1.73
2022-07-30T23:12:27.127Z,1.70
2022-07-30T23:12:32.756Z,2.00
2022-07-30T23:12:49.381Z,1.80
2022-07-30T23:15:36.362Z,1.60
2022-07-30T23:18:23.157Z,1.60
2022-07-30T23:21:12.369Z,1.85
2022-07-30T23:23:59.762Z,1.85
2022-07-30T23:26:48.067Z,1.77
2022-07-30T23:29:37.457Z,2.10
2022-07-30T23:32:24.857Z,2.00
2022-07-30T23:35:11.686Z,1.90
2022-07-30T23:37:58.567Z,1.75
2022-07-30T23:40:51.539Z,2.07
2022-07-30T23:43:38.485Z,1.77
2022-07-30T23:46:25.422Z,1.90
2022-07-30T23:49:13.103Z,2.33
2022-07-30T23:54:49.568Z,1.90
2022-07-30T23:57:37.593Z,1.70
